Time;durP1;ratioP1;P1;durP2;ratioP2;P2;SDS_P1;SDS_P2;PMS_P1;PMS_P2;Temp;Humidity;BMP_temperature;BMP_pressure;BME280_temperature;BME280_humidity;BME280_pressure;Samples;Min_cycle;Max_cycle;Signal;HPM_P1;HPM_P2
2022/05/03 00:04:03;;;;;;;3.75;2.17;;;;;;;;;;10549231;28;20127;-74
2022/05/03 00:09:07;;;;;;;10.85;4.13;;;;;;;;;;10534340;28;20510;-74
2022/05/03 00:14:16;;;;;;;6.28;2.70;;;;;;;;;;10534197;28;20122;-74
2022/05/03 00:19:20;;;;;;;7.35;3.92;;;;;;;;;;10547043;28;20036;-75
2022/05/03 00:24:23;;;;;;;8.02;4.18;;;;;;;;;;10521411;28;20403;-75
2022/05/03 00:29:29;;;;;;;8.02;4.38;;;;;;;;;;10540697;28;20039;-75
2022/05/03 00:34:34;;;;;;;8.73;4.43;;;;;;;;;;10547354;28;20301;-73
2022/05/03 00:39:37;;;;;;;8.68;4.30;;;;;;;;;;10525289;28;20151;-74
2022/05/03 00:44:58;;;;;;;8.43;4.10;;;;;;;;;;10520287;28;20051;-73
2022/05/03 00:50:05;;;;;;;7.85;4.40;;;;;;;;;;10539985;28;20028;-74
2022/05/03 00:55:20;;;;;;;9.55;4.78;;;;;;;;;;10541824;28;20399;-75
2022/05/03 01:00:25;;;;;;;9.30;4.50;;;;;;;;;;10549516;28;20032;-74
2022/05/03 01:05:34;;;;;;;11.35;4.80;;;;;;;;;;10523739;28;20067;-75
2022/05/03 01:10:46;;;;;;;8.45;4.35;;;;;;;;;;10528544;28;20039;-73
2022/05/03 01:15:53;;;;;;;10.68;4.78;;;;;;;;;;10535150;28;20031;-74
2022/05/03 01:21:06;;;;;;;9.98;4.88;;;;;;;;;;10543658;28;20036;-73
2022/05/03 01:26:25;;;;;;;8.07;4.60;;;;;;;;;;10545378;28;20036;-73
2022/05/03 01:31:30;;;;;;;9.82;4.93;;;;;;;;;;10542300;28;20408;-71
2022/05/03 01:36:40;;;;;;;8.63;4.22;;;;;;;;;;10533784;28;20173;-74
2022/05/03 01:41:49;;;;;;;6.07;2.45;;;;;;;;;;10541939;28;20049;-75
2022/05/03 01:46:54;;;;;;;6.80;3.50;;;;;;;;;;10557369;28;20044;-74
2022/05/03 01:52:11;;;;;;;9.10;3.58;;;;;;;;;;10529560;28;20122;-74
2022/05/03 01:57:22;;;;;;;5.97;2.92;;;;;;;;;;10540982;28;20040;-74
2022/05/03 02:02:34;;;;;;;6.20;3.35;;;;;;;;;;10537858;28;20063;-74
2022/05/03 02:07:46;;;;;;;8.23;3.50;;;;;;;;;;10530815;28;20040;-74
2022/05/03 02:12:53;;;;;;;5.93;3.30;;;;;;;;;;10538541;28;20064;-73
2022/05/03 02:18:04;;;;;;;7.15;3.38;;;;;;;;;;10546235;28;20105;-74
2022/05/03 02:23:15;;;;;;;5.07;2.88;;;;;;;;;;10545838;28;20032;-74
2022/05/03 02:28:20;;;;;;;5.63;3.15;;;;;;;;;;10543162;28;20078;-72
2022/05/03 02:33:27;;;;;;;6.70;3.00;;;;;;;;;;10548533;28;20040;-74
2022/05/03 02:38:31;;;;;;;5.57;2.60;;;;;;;;;;10545924;28;20044;-75
2022/05/03 02:43:36;;;;;;;5.65;3.08;;;;;;;;;;10546332;28;20040;-74
2022/05/03 02:48:42;;;;;;;6.30;3.00;;;;;;;;;;10543159;28;20444;-75
2022/05/03 02:53:48;;;;;;;5.82;2.78;;;;;;;;;;10553969;28;20040;-74
2022/05/03 02:58:59;;;;;;;6.32;3.40;;;;;;;;;;10522598;28;20067;-75
2022/05/03 03:04:05;;;;;;;6.55;3.08;;;;;;;;;;10545488;28;20408;-75
2022/05/03 03:09:09;;;;;;;7.07;2.97;;;;;;;;;;10531206;28;20070;-74
2022/05/03 03:14:21;;;;;;;6.22;2.70;;;;;;;;;;10548154;27;20028;-73
2022/05/03 03:19:41;;;;;;;5.72;2.88;;;;;;;;;;10548077;28;20508;-76
2022/05/03 03:24:44;;;;;;;5.30;2.80;;;;;;;;;;10538296;28;20043;-74
2022/05/03 03:29:47;;;;;;;10.93;5.10;;;;;;;;;;10531875;28;20071;-75
2022/05/03 03:34:54;;;;;;;9.52;4.13;;;;;;;;;;10544171;28;20085;-73
2022/05/03 03:39:57;;;;;;;11.90;4.80;;;;;;;;;;10535624;28;20048;-72
2022/05/03 03:45:00;;;;;;;12.98;5.53;;;;;;;;;;10532830;28;20043;-74
2022/05/03 03:50:05;;;;;;;13.65;5.30;;;;;;;;;;10552428;28;20418;-75
2022/05/03 03:55:08;;;;;;;7.78;4.05;;;;;;;;;;10525211;28;20526;-74
2022/05/03 04:00:12;;;;;;;10.00;5.07;;;;;;;;;;10545293;28;20039;-74
2022/05/03 04:05:17;;;;;;;13.95;5.60;;;;;;;;;;10544832;28;20116;-73
2022/05/03 04:10:20;;;;;;;10.88;5.38;;;;;;;;;;10520847;28;20130;-74
2022/05/03 04:15:23;;;;;;;12.18;4.78;;;;;;;;;;10545264;28;20032;-73
2022/05/03 04:20:28;;;;;;;12.93;5.22;;;;;;;;;;10521611;28;20024;-73
2022/05/03 04:25:31;;;;;;;;;;;;;;;;;;10533631;28;20110;-74
2022/05/03 04:30:34;;;;;;;8.77;4.45;;;;;;;;;;10525384;28;19936;-74
2022/05/03 04:35:39;;;;;;;8.55;4.15;;;;;;;;;;10521022;28;20044;-75
2022/05/03 04:40:42;;;;;;;;;;;;;;;;;;10548240;28;20039;-75
2022/05/03 04:45:45;;;;;;;5.07;2.45;;;;;;;;;;10542227;28;19963;-74
2022/05/03 04:50:49;;;;;;;7.90;3.13;;;;;;;;;;10534467;28;20115;-73
2022/05/03 04:55:51;;;;;;;6.93;3.22;;;;;;;;;;10539076;28;20062;-72
2022/05/03 05:00:54;;;;;;;7.22;3.30;;;;;;;;;;10541240;28;20878;-73
2022/05/03 05:05:58;;;;;;;5.95;3.03;;;;;;;;;;10522554;28;20131;-73
2022/05/03 05:11:01;;;;;;;7.75;3.15;;;;;;;;;;10544924;28;20686;-73
2022/05/03 05:16:05;;;;;;;6.15;3.30;;;;;;;;;;10530444;28;20043;-74
2022/05/03 05:21:10;;;;;;;7.00;3.15;;;;;;;;;;10523625;28;20039;-74
2022/05/03 05:26:13;;;;;;;5.50;3.03;;;;;;;;;;10538299;28;20036;-74
2022/05/03 05:31:17;;;;;;;3.67;2.20;;;;;;;;;;10544787;28;20406;-74
2022/05/03 05:36:21;;;;;;;5.50;2.87;;;;;;;;;;10515473;28;20415;-74
2022/05/03 05:41:25;;;;;;;6.53;3.20;;;;;;;;;;10522252;28;20031;-74
2022/05/03 05:46:27;;;;;;;4.43;2.50;;;;;;;;;;10536627;28;20107;-70
2022/05/03 05:51:32;;;;;;;6.43;2.92;;;;;;;;;;10541731;28;20127;-72
2022/05/03 05:56:34;;;;;;;4.90;2.78;;;;;;;;;;10535492;28;20412;-74
2022/05/03 06:01:38;;;;;;;5.43;3.00;;;;;;;;;;10540856;28;20085;-74
2022/05/03 06:06:43;;;;;;;5.35;2.78;;;;;;;;;;10544073;28;20492;-74
2022/05/03 06:11:46;;;;;;;6.10;2.65;;;;;;;;;;10536970;28;20023;-74
2022/05/03 06:16:49;;;;;;;10.88;4.43;;;;;;;;;;10520690;28;20039;-74
2022/05/03 06:21:53;;;;;;;6.10;2.73;;;;;;;;;;10549013;28;20032;-74
2022/05/03 06:26:58;;;;;;;5.45;3.42;;;;;;;;;;10531152;28;20040;-74
2022/05/03 06:32:01;;;;;;;;;;;;;;;;;;10532415;28;20534;-73
2022/05/03 06:37:05;;;;;;;5.95;2.83;;;;;;;;;;10552468;28;19967;-74
2022/05/03 06:42:08;;;;;;;8.95;2.60;;;;;;;;;;10527568;28;20661;-74
2022/05/03 06:47:12;;;;;;;6.20;2.70;;;;;;;;;;10546580;28;20035;-74
2022/05/03 06:52:16;;;;;;;6.83;3.30;;;;;;;;;;10547402;28;20360;-74
2022/05/03 06:57:19;;;;;;;4.60;2.92;;;;;;;;;;10534319;28;20067;-73
2022/05/03 07:02:22;;;;;;;7.60;2.97;;;;;;;;;;10538765;28;20032;-72
2022/05/03 07:07:26;;;;;;;5.63;2.83;;;;;;;;;;10523290;28;20036;-76
2022/05/03 07:12:29;;;;;;;8.02;3.00;;;;;;;;;;10542496;28;20051;-73
2022/05/03 07:22:54;;;;;;;12.70;2.60;;;;;;;;;;10539846;28;20040;-73
2022/05/03 07:27:57;;;;;;;5.40;2.28;;;;;;;;;;10526374;28;20123;-74
2022/05/03 07:33:00;;;;;;;4.22;2.58;;;;;;;;;;10523614;28;20070;-74
2022/05/03 07:38:05;;;;;;;5.03;2.40;;;;;;;;;;10536407;28;20061;-75
2022/05/03 07:43:07;;;;;;;3.60;2.17;;;;;;;;;;10542642;28;20514;-75
2022/05/03 07:48:10;;;;;;;6.05;2.35;;;;;;;;;;10527999;28;20063;-75
2022/05/03 07:53:13;;;;;;;;;;;;;;;;;;10538513;28;20032;-72
2022/05/03 07:58:18;;;;;;;3.42;2.53;;;;;;;;;;10530020;28;19927;-75
2022/05/03 08:03:22;;;;;;;4.97;3.08;;;;;;;;;;10545007;28;20122;-76
2022/05/03 08:08:25;;;;;;;4.15;2.53;;;;;;;;;;10545135;28;20108;-75
2022/05/03 08:13:29;;;;;;;5.63;2.92;;;;;;;;;;10527578;28;20113;-73
2022/05/03 08:18:32;;;;;;;5.57;2.75;;;;;;;;;;10524204;28;20283;-75
2022/05/03 08:23:35;;;;;;;6.85;3.03;;;;;;;;;;10522482;28;20139;-75
2022/05/03 08:28:40;;;;;;;4.47;2.42;;;;;;;;;;10525039;28;20519;-75
2022/05/03 08:33:44;;;;;;;2.90;2.60;;;;;;;;;;10543216;28;20143;-74
2022/05/03 08:44:09;;;;;;;7.05;2.90;;;;;;;;;;10524294;28;20060;-77
2022/05/03 08:49:14;;;;;;;7.22;3.25;;;;;;;;;;10542656;28;20036;-76
2022/05/03 08:54:16;;;;;;;5.75;3.28;;;;;;;;;;10521200;28;20040;-76
2022/05/03 08:59:21;;;;;;;3.47;3.15;;;;;;;;;;10516515;28;20070;-76
2022/05/03 09:04:23;;;;;;;9.57;3.67;;;;;;;;;;10541754;28;20032;-75
2022/05/03 09:09:26;;;;;;;5.85;3.33;;;;;;;;;;10529368;28;20082;-76
2022/05/03 09:14:36;;;;;;;6.25;3.60;;;;;;;;;;10532976;28;20067;-76
2022/05/03 09:19:39;;;;;;;4.57;3.28;;;;;;;;;;10520732;28;20060;-76
2022/05/03 09:24:57;;;;;;;4.80;3.50;;;;;;;;;;10520575;28;20519;-77
2022/05/03 09:30:03;;;;;;;6.78;3.50;;;;;;;;;;10516620;28;20063;-77
2022/05/03 09:35:07;;;;;;;3.45;3.10;;;;;;;;;;10523382;28;20028;-76
2022/05/03 09:40:12;;;;;;;6.82;3.30;;;;;;;;;;10538461;28;20055;-76
2022/05/03 09:45:21;;;;;;;3.47;2.63;;;;;;;;;;10527001;28;20039;-76
2022/05/03 09:50:28;;;;;;;3.80;3.42;;;;;;;;;;10545185;28;20411;-76
2022/05/03 09:55:32;;;;;;;3.70;3.40;;;;;;;;;;10527615;28;20066;-75
2022/05/03 10:00:37;;;;;;;9.88;5.40;;;;;;;;;;10545937;28;20036;-73
2022/05/03 10:05:40;;;;;;;7.10;3.88;;;;;;;;;;10535736;28;20042;-73
2022/05/03 10:10:44;;;;;;;4.68;3.90;;;;;;;;;;10550985;28;20043;-72
2022/05/03 10:21:12;;;;;;;6.50;4.97;;;;;;;;;;10535208;28;20140;-72
2022/05/03 10:26:14;;;;;;;4.97;4.30;;;;;;;;;;10526720;28;20036;-73
2022/05/03 10:31:21;;;;;;;4.53;3.90;;;;;;;;;;10521214;28;20115;-73
2022/05/03 10:36:41;;;;;;;5.13;4.45;;;;;;;;;;10543464;28;20035;-76
2022/05/03 10:42:02;;;;;;;5.22;3.78;;;;;;;;;;10541930;28;20044;-76
2022/05/03 10:47:06;;;;;;;4.95;3.42;;;;;;;;;;10534573;28;20040;-77
2022/05/03 10:52:18;;;;;;;4.32;3.70;;;;;;;;;;10538761;28;20043;-75
2022/05/03 10:57:21;;;;;;;;;;;;;;;;;;10543699;28;20028;-76
2022/05/03 11:02:25;;;;;;;3.72;2.72;;;;;;;;;;10548424;28;19924;-77
2022/05/03 11:07:30;;;;;;;4.68;3.45;;;;;;;;;;10529042;28;20479;-77
2022/05/03 11:12:48;;;;;;;8.40;4.55;;;;;;;;;;10546065;28;20409;-77
2022/05/03 11:17:52;;;;;;;5.82;4.10;;;;;;;;;;10551152;28;20040;-77
2022/05/03 11:22:55;;;;;;;4.93;3.80;;;;;;;;;;10543385;28;20038;-77
2022/05/03 11:27:59;;;;;;;5.68;4.47;;;;;;;;;;10516882;28;20100;-76
2022/05/03 11:33:03;;;;;;;6.55;4.70;;;;;;;;;;10549524;28;20067;-76
2022/05/03 11:38:11;;;;;;;8.32;4.97;;;;;;;;;;10534410;28;20528;-77
2022/05/03 11:43:34;;;;;;;8.98;5.63;;;;;;;;;;10553628;28;20152;-75
2022/05/03 11:48:38;;;;;;;10.30;5.57;;;;;;;;;;10533847;28;20040;-76
2022/05/03 11:59:01;;;;;;;7.95;5.15;;;;;;;;;;10543223;28;20487;-77
2022/05/03 12:04:08;;;;;;;9.57;5.68;;;;;;;;;;10522374;28;20043;-77
2022/05/03 12:09:11;;;;;;;8.20;5.43;;;;;;;;;;10522624;28;20044;-76
2022/05/03 12:14:29;;;;;;;6.80;5.43;;;;;;;;;;10542009;28;20471;-76
2022/05/03 12:19:35;;;;;;;8.77;5.38;;;;;;;;;;10540550;28;20410;-76
2022/05/03 12:24:41;;;;;;;8.07;5.32;;;;;;;;;;10527899;28;20560;-76
2022/05/03 12:29:44;;;;;;;10.25;5.65;;;;;;;;;;10545756;28;20071;-77
2022/05/03 12:34:57;;;;;;;9.73;5.18;;;;;;;;;;10539596;28;20132;-77
2022/05/03 12:40:01;;;;;;;10.95;5.15;;;;;;;;;;10533716;28;20063;-77
2022/05/03 12:45:06;;;;;;;8.40;5.15;;;;;;;;;;10547860;28;20075;-77
2022/05/03 12:50:11;;;;;;;7.88;5.28;;;;;;;;;;10541294;28;20409;-77
2022/05/03 12:55:13;;;;;;;12.88;4.85;;;;;;;;;;10524510;28;20062;-75
2022/05/03 13:00:17;;;;;;;8.45;5.97;;;;;;;;;;10546576;28;20060;-77
2022/05/03 13:05:21;;;;;;;7.22;4.90;;;;;;;;;;10542690;28;20119;-77
2022/05/03 13:10:24;;;;;;;7.68;4.68;;;;;;;;;;10539232;28;20425;-75
2022/05/03 13:15:27;;;;;;;8.38;4.88;;;;;;;;;;10531771;28;20096;-76
2022/05/03 13:20:32;;;;;;;8.23;5.13;;;;;;;;;;10520673;28;20057;-77
2022/05/03 13:25:37;;;;;;;8.52;4.32;;;;;;;;;;10540392;28;20067;-77
2022/05/03 13:30:40;;;;;;;7.00;4.28;;;;;;;;;;10529793;28;20035;-77
2022/05/03 13:41:06;;;;;;;11.07;5.03;;;;;;;;;;10524582;28;20132;-76
2022/05/03 13:46:09;;;;;;;6.05;4.15;;;;;;;;;;10527408;28;20028;-77
2022/05/03 13:51:13;;;;;;;6.72;4.40;;;;;;;;;;10539125;28;20046;-76
2022/05/03 13:56:16;;;;;;;7.75;4.20;;;;;;;;;;10542933;28;20062;-77
2022/05/03 14:01:19;;;;;;;10.25;4.28;;;;;;;;;;10544738;28;20063;-77
2022/05/03 14:06:25;;;;;;;6.13;3.90;;;;;;;;;;10536826;28;20046;-77
2022/05/03 14:11:28;;;;;;;6.68;3.78;;;;;;;;;;10518064;28;20142;-75
2022/05/03 14:16:31;;;;;;;4.13;2.83;;;;;;;;;;10542943;28;20031;-75
2022/05/03 14:21:35;;;;;;;6.45;3.50;;;;;;;;;;10526486;28;20048;-77
2022/05/03 14:26:38;;;;;;;5.10;3.05;;;;;;;;;;10538592;28;20480;-76
2022/05/03 14:31:43;;;;;;;6.90;3.50;;;;;;;;;;10537655;28;20035;-75
2022/05/03 14:36:48;;;;;;;5.13;3.10;;;;;;;;;;10532570;28;20119;-75
2022/05/03 14:41:52;;;;;;;5.57;2.90;;;;;;;;;;10542464;28;20047;-76
2022/05/03 14:46:55;;;;;;;5.35;3.08;;;;;;;;;;10527947;28;20040;-76
2022/05/03 14:51:58;;;;;;;;;;;;;;;;;;10531727;28;20130;-77
2022/05/03 15:07:44;;;;;;;7.25;2.97;;;;;;;;;;10546420;28;20488;-72
2022/05/03 15:12:50;;;;;;;5.70;3.33;;;;;;;;;;10553581;28;20031;-77
2022/05/03 15:17:53;;;;;;;5.50;3.20;;;;;;;;;;10548335;28;20062;-76
2022/05/03 15:28:18;;;;;;;4.55;2.90;;;;;;;;;;10529679;28;20098;-76
2022/05/03 15:33:22;;;;;;;5.20;2.80;;;;;;;;;;10546084;28;20083;-76
2022/05/03 15:38:25;;;;;;;5.75;3.15;;;;;;;;;;10549366;28;20043;-77
2022/05/03 15:43:33;;;;;;;5.28;2.72;;;;;;;;;;10522419;28;20132;-77
2022/05/03 15:48:36;;;;;;;9.25;3.33;;;;;;;;;;10530014;28;20176;-78
2022/05/03 15:53:39;;;;;;;4.57;3.15;;;;;;;;;;10518866;28;20056;-75
2022/05/03 15:58:42;;;;;;;;;;;;;;;;;;10542077;28;20127;-76
2022/05/03 16:03:46;;;;;;;;;;;;;;;;;;10547006;28;19931;-73
2022/05/03 16:08:51;;;;;;;3.55;2.40;;;;;;;;;;10522378;28;20422;-77
2022/05/03 16:13:54;;;;;;;4.15;2.72;;;;;;;;;;10540171;28;20093;-75
2022/05/03 16:18:56;;;;;;;7.55;3.22;;;;;;;;;;10534121;28;20129;-77
2022/05/03 16:24:01;;;;;;;4.15;2.85;;;;;;;;;;10528824;28;20485;-77
2022/05/03 16:29:04;;;;;;;3.67;2.63;;;;;;;;;;10538326;28;20036;-78
2022/05/03 16:34:07;;;;;;;6.03;2.85;;;;;;;;;;10522912;28;20127;-77
2022/05/03 16:44:42;;;;;;;5.35;2.60;;;;;;;;;;10495509;28;20481;-76
2022/05/03 16:49:45;;;;;;;7.05;3.75;;;;;;;;;;10528718;28;20123;-77
2022/05/03 16:54:48;;;;;;;;;;;;;;;;;;10528622;28;20059;-76
2022/05/03 16:59:52;;;;;;;8.57;4.00;;;;;;;;;;10545678;28;19981;-76
2022/05/03 17:04:55;;;;;;;7.20;3.25;;;;;;;;;;10540472;28;20294;-75
2022/05/03 17:09:58;;;;;;;6.63;3.30;;;;;;;;;;10524433;28;20349;-76
2022/05/03 17:15:03;;;;;;;8.55;4.43;;;;;;;;;;10543135;28;20150;-76
2022/05/03 17:20:07;;;;;;;7.07;2.97;;;;;;;;;;10519910;28;20458;-76
2022/05/03 17:25:10;;;;;;;3.25;1.90;;;;;;;;;;10545715;28;20136;-77
2022/05/03 17:30:15;;;;;;;3.40;2.13;;;;;;;;;;10540674;28;20044;-77
2022/05/03 17:35:18;;;;;;;2.88;1.90;;;;;;;;;;10527126;28;20105;-78
2022/05/03 17:40:22;;;;;;;2.90;1.80;;;;;;;;;;10535203;28;20043;-76
2022/05/03 17:45:27;;;;;;;4.00;2.08;;;;;;;;;;10541565;28;20036;-79
2022/05/03 17:50:29;;;;;;;3.78;1.50;;;;;;;;;;10520891;28;20080;-78
2022/05/03 17:55:32;;;;;;;3.10;1.60;;;;;;;;;;10529193;28;20464;-78
2022/05/03 18:00:37;;;;;;;4.50;1.80;;;;;;;;;;10521324;28;20101;-75
2022/05/03 18:05:39;;;;;;;11.63;3.08;;;;;;;;;;10528121;28;20412;-75
2022/05/03 18:10:42;;;;;;;10.67;3.73;;;;;;;;;;10538277;28;20479;-76
2022/05/03 18:15:47;;;;;;;12.97;2.60;;;;;;;;;;10549381;28;20123;-73
2022/05/03 18:20:50;;;;;;;8.40;2.20;;;;;;;;;;10527911;28;20047;-72
2022/05/03 18:25:53;;;;;;;10.38;3.17;;;;;;;;;;10525993;28;20395;-75
2022/05/03 18:30:59;;;;;;;7.07;2.28;;;;;;;;;;10548232;28;20067;-75
2022/05/03 18:36:02;;;;;;;4.82;2.80;;;;;;;;;;10548669;28;20085;-75
2022/05/03 18:41:05;;;;;;;4.78;2.15;;;;;;;;;;10549522;28;20070;-77
2022/05/03 18:46:10;;;;;;;5.82;2.55;;;;;;;;;;10528352;28;20522;-74
2022/05/03 18:51:13;;;;;;;5.53;2.53;;;;;;;;;;10546558;28;20136;-76
2022/05/03 18:56:16;;;;;;;5.90;3.00;;;;;;;;;;10547989;28;20250;-75
2022/05/03 19:01:21;;;;;;;7.28;2.80;;;;;;;;;;10544879;28;20072;-77
2022/05/03 19:06:24;;;;;;;4.75;2.58;;;;;;;;;;10543484;28;20032;-75
2022/05/03 19:11:27;;;;;;;4.65;2.00;;;;;;;;;;10541822;28;20059;-77
2022/05/03 19:16:31;;;;;;;3.90;2.17;;;;;;;;;;10544330;28;20040;-75
2022/05/03 19:21:34;;;;;;;4.93;2.20;;;;;;;;;;10547023;28;20039;-74
2022/05/03 19:31:58;;;;;;;5.32;2.20;;;;;;;;;;10527126;28;20546;-76
2022/05/03 19:37:03;;;;;;;4.90;2.75;;;;;;;;;;10547459;28;20076;-76
2022/05/03 19:42:06;;;;;;;10.73;3.80;;;;;;;;;;10532555;28;20050;-78
2022/05/03 19:47:16;;;;;;;6.22;2.90;;;;;;;;;;10524474;28;20082;-75
2022/05/03 19:52:20;;;;;;;7.00;3.75;;;;;;;;;;10528740;28;20063;-73
2022/05/03 19:57:23;;;;;;;6.78;3.00;;;;;;;;;;10546549;28;20051;-72
2022/05/03 20:02:28;;;;;;;5.95;2.80;;;;;;;;;;10525720;28;20066;-75
2022/05/03 20:07:37;;;;;;;8.40;2.30;;;;;;;;;;10525233;28;20070;-73
2022/05/03 20:12:40;;;;;;;3.60;2.10;;;;;;;;;;10522411;28;20127;-75
2022/05/03 20:17:44;;;;;;;4.82;2.42;;;;;;;;;;10539027;28;20033;-76
2022/05/03 20:22:47;;;;;;;9.57;3.25;;;;;;;;;;10548205;28;20040;-75
2022/05/03 20:27:50;;;;;;;5.80;2.42;;;;;;;;;;10522518;28;20032;-75
2022/05/03 20:32:54;;;;;;;6.38;2.47;;;;;;;;;;10529059;28;20051;-75
2022/05/03 20:37:57;;;;;;;7.47;3.20;;;;;;;;;;10523989;28;20077;-76
2022/05/03 20:43:01;;;;;;;4.80;2.67;;;;;;;;;;10524527;28;20074;-76
2022/05/03 20:53:25;;;;;;;5.97;2.35;;;;;;;;;;10540649;28;19929;-75
2022/05/03 20:58:28;;;;;;;5.03;2.70;;;;;;;;;;10526876;28;20131;-72
2022/05/03 21:03:31;;;;;;;5.03;3.03;;;;;;;;;;10539516;28;20439;-76
2022/05/03 21:08:35;;;;;;;7.20;2.63;;;;;;;;;;10518613;28;20029;-75
2022/05/03 21:13:38;;;;;;;7.20;3.40;;;;;;;;;;10521578;28;20087;-76
2022/05/03 21:18:41;;;;;;;5.47;3.38;;;;;;;;;;10549271;28;20420;-75
2022/05/03 21:23:47;;;;;;;9.65;4.45;;;;;;;;;;10542535;28;20483;-76
2022/05/03 21:28:50;;;;;;;11.15;4.60;;;;;;;;;;10531592;28;20031;-74
2022/05/03 21:33:54;;;;;;;8.57;3.67;;;;;;;;;;10544628;28;20039;-75
2022/05/03 21:39:01;;;;;;;6.73;3.23;;;;;;;;;;10549082;28;20074;-73
2022/05/03 21:44:04;;;;;;;6.10;3.38;;;;;;;;;;10538095;28;20070;-76
2022/05/03 21:49:08;;;;;;;5.50;3.03;;;;;;;;;;10524260;28;20067;-76
2022/05/03 21:54:13;;;;;;;7.00;3.40;;;;;;;;;;10538708;28;20484;-75
2022/05/03 21:59:17;;;;;;;6.55;3.22;;;;;;;;;;10541375;28;20036;-76
2022/05/03 22:04:20;;;;;;;9.23;3.22;;;;;;;;;;10517513;28;20123;-76
2022/05/03 22:09:25;;;;;;;6.35;3.50;;;;;;;;;;10538420;28;20408;-76
2022/05/03 22:14:27;;;;;;;7.93;4.22;;;;;;;;;;10524580;28;20070;-73
2022/05/03 22:19:30;;;;;;;7.68;3.85;;;;;;;;;;10516746;28;20452;-74
2022/05/03 22:24:34;;;;;;;7.95;3.72;;;;;;;;;;10521606;28;20055;-75
2022/05/03 22:29:37;;;;;;;6.93;3.90;;;;;;;;;;10534952;28;20142;-75
2022/05/03 22:34:40;;;;;;;7.85;3.90;;;;;;;;;;10530469;28;20126;-76
2022/05/03 22:39:44;;;;;;;8.60;4.28;;;;;;;;;;10533548;28;20050;-74
2022/05/03 22:44:48;;;;;;;13.00;5.40;;;;;;;;;;10520513;28;20404;-76
2022/05/03 22:49:51;;;;;;;3.65;1.95;;;;;;;;;;10541308;28;20052;-76
2022/05/03 22:54:56;;;;;;;9.90;4.45;;;;;;;;;;10535970;28;20453;-76
2022/05/03 22:59:59;;;;;;;6.55;3.03;;;;;;;;;;10518914;28;20639;-76
2022/05/03 23:05:03;;;;;;;7.80;3.40;;;;;;;;;;10547337;28;20064;-76
2022/05/03 23:10:09;;;;;;;3.95;2.17;;;;;;;;;;10525582;28;20059;-74
2022/05/03 23:15:12;;;;;;;4.85;2.92;;;;;;;;;;10548928;28;20047;-75
2022/05/03 23:20:15;;;;;;;4.47;2.60;;;;;;;;;;10525972;28;20508;-75
2022/05/03 23:25:19;;;;;;;5.93;2.75;;;;;;;;;;10525014;28;20028;-75
2022/05/03 23:30:22;;;;;;;6.68;3.30;;;;;;;;;;10543193;28;20043;-76
2022/05/03 23:35:25;;;;;;;6.05;2.90;;;;;;;;;;10547568;28;20130;-74
2022/05/03 23:40:29;;;;;;;5.88;2.80;;;;;;;;;;10522849;28;20504;-74
2022/05/03 23:50:52;;;;;;;3.38;1.98;;;;;;;;;;10549093;28;20047;-75
2022/05/03 23:55:56;;;;;;;5.93;3.40;;;;;;;;;;10525096;28;20056;-74
